createdAt,value
2023-03-16T00:03:53.684Z,5.10
2023-03-16T00:08:59.059Z,4.75
2023-03-16T00:14:04.111Z,3.83
2023-03-16T00:19:06.763Z,3.70
2023-03-16T00:24:12.746Z,4.55
2023-03-16T00:29:15.751Z,4.95
2023-03-16T00:34:18.565Z,4.65
2023-03-16T00:39:22.714Z,4.07
2023-03-16T00:44:25.553Z,3.60
2023-03-16T00:49:28.678Z,4.07
2023-03-16T00:54:33.635Z,4.20
2023-03-16T00:59:37.861Z,3.92
2023-03-16T01:04:42.257Z,3.92
2023-03-16T01:09:46.375Z,3.65
2023-03-16T01:14:49.368Z,3.50
2023-03-16T01:19:52.441Z,3.80
2023-03-16T01:24:58.357Z,3.70
2023-03-16T01:30:02.187Z,3.75
2023-03-16T01:35:06.606Z,3.90
2023-03-16T01:40:12.998Z,4.05
2023-03-16T01:45:53.761Z,3.90
2023-03-16T01:50:57.691Z,3.05
2023-03-16T01:56:04.170Z,3.83
2023-03-16T02:01:06.987Z,3.50
2023-03-16T02:06:12.262Z,3.10
2023-03-16T02:11:22.512Z,3.47
2023-03-16T02:16:42.051Z,3.22
2023-03-16T02:21:54.340Z,3.35
2023-03-16T02:27:01.554Z,3.20
2023-03-16T02:32:10.240Z,3.10
2023-03-16T02:37:13.679Z,3.20
2023-03-16T02:42:19.789Z,3.00
2023-03-16T02:47:29.760Z,3.10
2023-03-16T02:52:32.600Z,3.55
2023-03-16T02:57:35.954Z,3.10
2023-03-16T03:02:45.978Z,3.15
2023-03-16T03:07:48.833Z,3.30
2023-03-16T03:12:51.994Z,2.80
2023-03-16T03:17:56.231Z,3.40
2023-03-16T03:22:59.085Z,3.00
2023-03-16T03:28:03.035Z,3.00
2023-03-16T03:33:08.386Z,2.72
2023-03-16T03:38:11.519Z,2.40
2023-03-16T03:43:14.963Z,2.60
2023-03-16T03:48:21.628Z,3.10
2023-03-16T03:53:24.653Z,2.80
2023-03-16T03:58:46.066Z,2.50
2023-03-16T04:03:56.105Z,2.90
2023-03-16T04:08:59.033Z,2.80
2023-03-16T04:14:03.784Z,2.90
2023-03-16T04:19:07.972Z,3.00
2023-03-16T04:24:14.784Z,2.70
2023-03-16T04:29:18.766Z,2.35
2023-03-16T04:34:24.973Z,2.88
2023-03-16T04:39:31.028Z,2.47
2023-03-16T04:44:33.847Z,3.10
2023-03-16T04:49:38.332Z,2.60
2023-03-16T04:54:41.315Z,2.97
2023-03-16T04:59:45.179Z,2.65
2023-03-16T05:04:57.800Z,2.75
2023-03-16T05:10:00.830Z,2.67
2023-03-16T05:15:03.653Z,2.63
2023-03-16T05:20:16.476Z,2.95
2023-03-16T05:25:25.213Z,2.92
2023-03-16T05:30:31.169Z,2.97
2023-03-16T05:35:38.139Z,2.63
2023-03-16T05:40:46.148Z,3.20
2023-03-16T05:46:01.522Z,2.70
2023-03-16T05:51:06.491Z,2.63
2023-03-16T05:56:09.730Z,3.35
2023-03-16T06:01:17.221Z,2.70
2023-03-16T06:06:22.566Z,2.55
2023-03-16T06:11:45.569Z,2.70
2023-03-16T06:16:51.135Z,2.60
2023-03-16T06:22:05.742Z,2.72
2023-03-16T06:27:08.821Z,3.00
2023-03-16T06:32:23.798Z,2.50
2023-03-16T06:37:28.086Z,2.63
2023-03-16T06:42:31.094Z,2.40
2023-03-16T06:47:34.189Z,2.38
2023-03-16T06:52:38.743Z,2.70
2023-03-16T06:57:41.978Z,2.20
2023-03-16T07:02:44.749Z,3.00
2023-03-16T07:07:50.329Z,2.38
2023-03-16T07:12:53.123Z,2.50
2023-03-16T07:17:56.154Z,2.65
2023-03-16T07:23:00.309Z,2.13
2023-03-16T07:28:03.362Z,2.58
2023-03-16T07:33:11.838Z,2.10
2023-03-16T07:38:16.811Z,2.67
2023-03-16T07:43:19.562Z,2.20
2023-03-16T07:48:25.994Z,2.20
2023-03-16T07:53:37.076Z,2.17
2023-03-16T07:58:53.934Z,2.65
2023-03-16T08:03:56.694Z,2.88
2023-03-16T08:09:02.219Z,2.42
2023-03-16T08:14:09.679Z,2.38
2023-03-16T08:19:38.715Z,1.92
2023-03-16T08:24:45.470Z,1.73
2023-03-16T08:29:53.769Z,1.73
2023-03-16T08:35:00.428Z,2.10
2023-03-16T08:40:10.668Z,1.63
2023-03-16T08:45:14.818Z,2.08
2023-03-16T08:50:20.830Z,1.70
2023-03-16T08:55:24.897Z,1.60
2023-03-16T09:00:28.890Z,1.70
2023-03-16T09:06:19.677Z,1.92
2023-03-16T09:11:26.014Z,2.42
2023-03-16T09:16:30.805Z,2.55
2023-03-16T09:21:35.049Z,2.35
2023-03-16T09:26:39.871Z,2.80
2023-03-16T09:31:43.313Z,2.40
2023-03-16T09:36:46.208Z,2.50
2023-03-16T09:41:55.031Z,2.83
2023-03-16T09:47:00.782Z,2.50
2023-03-16T09:52:09.982Z,2.40
2023-03-16T09:57:29.797Z,2.58
2023-03-16T10:02:51.044Z,2.55
2023-03-16T10:08:02.304Z,2.40
2023-03-16T10:13:07.046Z,2.45
2023-03-16T10:18:15.462Z,2.72
2023-03-16T10:23:20.716Z,2.58
2023-03-16T10:29:47.459Z,2.40
2023-03-16T10:35:34.096Z,2.42
2023-03-16T10:40:38.644Z,2.10
2023-03-16T10:45:43.889Z,2.40
2023-03-16T10:50:52.005Z,2.78
2023-03-16T10:55:59.681Z,2.10
2023-03-16T11:01:03.471Z,1.92
2023-03-16T11:06:17.895Z,2.28
2023-03-16T11:17:53.408Z,2.20
2023-03-16T11:22:57.536Z,2.00
2023-03-16T11:28:08.785Z,1.88
2023-03-16T11:33:14.007Z,2.10
2023-03-16T11:38:20.601Z,2.03
2023-03-16T11:43:49.485Z,1.83
2023-03-16T11:49:02.779Z,2.53
2023-03-16T11:54:18.524Z,1.90
2023-03-16T11:59:55.447Z,1.90
2023-03-16T12:05:30.284Z,1.90
2023-03-16T12:10:37.591Z,2.00
2023-03-16T12:15:44.837Z,2.30
2023-03-16T12:20:51.935Z,2.10
2023-03-16T12:25:59.757Z,2.47
2023-03-16T12:31:09.862Z,2.13
2023-03-16T12:36:32.934Z,1.83
2023-03-16T12:41:42.729Z,2.03
2023-03-16T12:46:52.713Z,1.80
2023-03-16T12:52:03.792Z,1.77
2023-03-16T12:57:09.668Z,1.98
2023-03-16T13:02:16.510Z,2.13
2023-03-16T13:07:21.519Z,1.98
2023-03-16T13:12:28.424Z,2.08
2023-03-16T13:17:32.928Z,1.95
2023-03-16T13:22:46.503Z,1.52
2023-03-16T13:27:53.487Z,1.73
2023-03-16T13:32:58.186Z,1.88
2023-03-16T13:38:05.646Z,1.88
2023-03-16T13:43:16.350Z,1.70
2023-03-16T13:48:20.366Z,1.60
2023-03-16T13:53:25.557Z,1.77
2023-03-16T13:58:37.809Z,1.65
2023-03-16T14:03:42.065Z,1.60
2023-03-16T14:08:48.308Z,1.70
2023-03-16T14:13:56.699Z,1.80
2023-03-16T14:19:02.728Z,1.88
2023-03-16T14:24:07.229Z,1.88
2023-03-16T14:29:18.640Z,1.77
2023-03-16T14:34:28.814Z,1.95
2023-03-16T14:40:07.382Z,1.70
2023-03-16T14:45:29.161Z,2.00
2023-03-16T14:50:37.712Z,1.52
2023-03-16T14:55:40.461Z,1.85
2023-03-16T15:00:52.581Z,1.80
2023-03-16T15:05:55.946Z,1.77
2023-03-16T15:11:00.734Z,1.80
2023-03-16T15:16:05.676Z,1.65
2023-03-16T15:21:12.712Z,1.70
2023-03-16T15:26:17.662Z,1.80
2023-03-16T15:31:22.063Z,1.60
2023-03-16T15:36:24.872Z,1.90
2023-03-16T15:41:35.056Z,1.80
2023-03-16T15:46:45.731Z,1.70
2023-03-16T15:51:48.527Z,1.88
2023-03-16T15:56:54.535Z,1.70
2023-03-16T16:01:58.943Z,2.17
2023-03-16T16:07:02.802Z,1.80
2023-03-16T16:12:06.132Z,1.90
2023-03-16T16:17:13.417Z,1.40
2023-03-16T16:22:16.446Z,1.50
2023-03-16T16:27:19.186Z,1.80
2023-03-16T16:32:25.641Z,1.90
2023-03-16T16:37:28.621Z,1.65
2023-03-16T16:42:31.517Z,1.80
2023-03-16T16:47:38.036Z,1.73
2023-03-16T16:52:40.784Z,2.00
2023-03-16T16:57:44.348Z,1.77
2023-03-16T17:02:50.834Z,1.77
2023-03-16T17:07:54.133Z,1.50
2023-03-16T17:12:57.821Z,1.60
2023-03-16T17:18:05.011Z,1.85
2023-03-16T17:23:22.697Z,1.80
2023-03-16T17:28:26.780Z,1.83
2023-03-16T17:33:30.877Z,1.70
2023-03-16T17:38:33.904Z,2.22
2023-03-16T17:43:36.597Z,1.67
2023-03-16T17:48:40.632Z,1.60
2023-03-16T17:53:43.650Z,1.85
2023-03-16T17:58:47.746Z,1.70
2023-03-16T18:03:51.748Z,1.63
2023-03-16T18:08:54.496Z,2.13
2023-03-16T18:13:57.342Z,2.00
2023-03-16T18:19:04.225Z,1.95
2023-03-16T18:24:09.608Z,1.75
2023-03-16T18:29:13.706Z,1.80
2023-03-16T18:34:21.178Z,1.70
2023-03-16T18:39:23.908Z,1.90
2023-03-16T18:44:26.852Z,3.08
2023-03-16T18:49:34.058Z,1.92
2023-03-16T18:54:36.750Z,2.00
2023-03-16T18:59:39.482Z,2.00
2023-03-16T19:04:51.327Z,2.10
2023-03-16T19:09:54.179Z,2.35
2023-03-16T19:14:56.806Z,2.17
2023-03-16T19:20:00.899Z,2.30
2023-03-16T19:25:03.785Z,1.90
2023-03-16T19:30:07.510Z,2.13
2023-03-16T19:35:15.422Z,1.88
2023-03-16T19:40:28.554Z,2.30
2023-03-16T19:45:33.777Z,1.85
2023-03-16T19:50:37.810Z,2.20
2023-03-16T19:55:41.750Z,2.08
2023-03-16T20:00:46.224Z,2.40
2023-03-16T20:05:50.287Z,2.40
2023-03-16T20:10:55.407Z,2.53
2023-03-16T20:15:58.073Z,1.80
2023-03-16T20:21:02.163Z,2.40
2023-03-16T20:33:06.913Z,2.50
2023-03-16T20:43:48.240Z,2.03
2023-03-16T20:48:51.009Z,4.85
2023-03-16T21:00:48.928Z,6.10
2023-03-16T21:05:53.258Z,6.72
2023-03-16T21:17:59.595Z,9.88
2023-03-16T21:23:03.534Z,20.60
2023-03-16T21:28:32.895Z,21.58
2023-03-16T21:33:46.580Z,12.85
2023-03-16T21:38:50.131Z,16.95
2023-03-16T21:43:54.405Z,17.55
2023-03-16T21:48:58.625Z,12.20
2023-03-16T21:54:01.604Z,13.23
2023-03-16T21:59:04.542Z,10.27
2023-03-16T22:04:11.543Z,12.70
2023-03-16T22:09:18.489Z,5.72
2023-03-16T22:14:21.862Z,6.75
2023-03-16T22:19:27.007Z,6.57
2023-03-16T22:24:34.510Z,13.23
2023-03-16T22:29:37.876Z,4.68
2023-03-16T22:34:44.055Z,6.47
2023-03-16T22:39:47.273Z,7.15
2023-03-16T22:44:59.333Z,5.93
2023-03-16T22:50:03.582Z,5.55
2023-03-16T22:55:08.217Z,7.22
2023-03-16T23:00:14.066Z,9.50
2023-03-16T23:05:23.125Z,5.30
2023-03-16T23:10:28.757Z,5.30
2023-03-16T23:15:32.218Z,5.63
2023-03-16T23:20:36.363Z,5.53
2023-03-16T23:25:49.085Z,7.07
2023-03-16T23:30:51.870Z,4.85
2023-03-16T23:35:55.964Z,7.05
2023-03-16T23:40:58.705Z,5.18
2023-03-16T23:46:01.425Z,7.38
2023-03-16T23:51:07.110Z,5.30
2023-03-16T23:56:10.589Z,7.10
